KISQ/ISQ METAR and TAF weather

Enter ICAO airport designator
Station Type Date Time Source
KISQ METAR 2019/06/16 20:36 UTC NOAA

KISQ 162036Z AUTO 17006KT 10SM CLR 18/08 A2994 RMK AO2 T01790075


Station Type Date Time Source
KISQ Decoded METAR 2019/06/16 20:36 UTC NOAA

Manistique, Schoolcraft County Airport, MI, United States (KISQ) 45-58-29N 086-10-19W
Jun 16, 2019 - 04:36 PM EDT / 2019.06.16 2036 UTC
Wind: from the S (170 degrees) at 7 MPH (6 KT):0
Visibility: 10 mile(s):0
Sky conditions: clear
Temperature: 64.2 F (17.9 C)
Dew Point: 45.5 F (7.5 C)
Relative Humidity: 50%
Pressure (altimeter): 29.94 in. Hg (1013 hPa)
ob: KISQ 162036Z AUTO 17006KT 10SM CLR 18/08 A2994 RMK AO2 T01790075
cycle: 20

Station Type Date Time Source
KISQ TAF UTC NOAA

Error!

Example: see airport list